LLB811 SLLP-SLCB
Flight info
| Callsign | LLB811 |
|---|---|
| Flight time | 0h 29m |
| Altitude | 25000 |
| Route | DAKOG UW677 TEDOK |
| Aircraft | B738/M-SDE2E3FGHIRWXY/LB1 |
Departure
| Time | 2026-04-27 01:55 |
|---|---|
| Airport | El Alto International Airport (SLLP) |
Arrival
| Time | 2026-04-27 02:24 |
|---|---|
| Airport | Jorge Wilsterman International Airport (SLCB) |
| Time | Latitude | Longitude | Altitude | Speed | Heading |
|---|---|---|---|---|---|
| 2026-04-27 01:26 | -16.50932 | -68.17760 | 13277 ft | 0 kts | 36° |
| 2026-04-27 01:44 | -16.50944 | -68.17768 | 13277 ft | 2 kts | 36° |
| 2026-04-27 01:44 | -16.50957 | -68.17778 | 13278 ft | 2 kts | 34° |
| 2026-04-27 01:44 | -16.50971 | -68.17788 | 13274 ft | 2 kts | 17° |
| 2026-04-27 01:45 | -16.50987 | -68.17786 | 13278 ft | 2 kts | 323° |
| 2026-04-27 01:45 | -16.50993 | -68.17774 | 13273 ft | 1 kts | 266° |
| 2026-04-27 01:45 | -16.50992 | -68.17773 | 13273 ft | 0 kts | 271° |
| 2026-04-27 01:47 | -16.50992 | -68.17776 | 13273 ft | 1 kts | 271° |
| 2026-04-27 01:48 | -16.50992 | -68.17808 | 13277 ft | 7 kts | 271° |
| 2026-04-27 01:48 | -16.50999 | -68.17879 | 13272 ft | 11 kts | 247° |
| 2026-04-27 01:48 | -16.51049 | -68.17942 | 13271 ft | 11 kts | 226° |
| 2026-04-27 01:48 | -16.51103 | -68.18000 | 13270 ft | 11 kts | 226° |
| 2026-04-27 01:49 | -16.51156 | -68.18056 | 13267 ft | 11 kts | 225° |
| 2026-04-27 01:49 | -16.51208 | -68.18109 | 13267 ft | 10 kts | 226° |
| 2026-04-27 01:49 | -16.51252 | -68.18167 | 13266 ft | 10 kts | 234° |
| 2026-04-27 01:49 | -16.51289 | -68.18226 | 13264 ft | 10 kts | 239° |
| 2026-04-27 01:50 | -16.51323 | -68.18303 | 13262 ft | 15 kts | 249° |
| 2026-04-27 01:50 | -16.51351 | -68.18437 | 13258 ft | 23 kts | 266° |
| 2026-04-27 01:50 | -16.51350 | -68.18629 | 13246 ft | 29 kts | 271° |
| 2026-04-27 01:50 | -16.51345 | -68.18842 | 13236 ft | 30 kts | 271° |
| 2026-04-27 01:51 | -16.51339 | -68.19060 | 13232 ft | 30 kts | 271° |
| 2026-04-27 01:51 | -16.51333 | -68.19278 | 13223 ft | 31 kts | 271° |
| 2026-04-27 01:51 | -16.51328 | -68.19501 | 13208 ft | 31 kts | 271° |
| 2026-04-27 01:51 | -16.51317 | -68.19732 | 13196 ft | 33 kts | 275° |
| 2026-04-27 01:52 | -16.51298 | -68.19973 | 13183 ft | 34 kts | 275° |
| 2026-04-27 01:52 | -16.51294 | -68.20224 | 13169 ft | 35 kts | 269° |
| 2026-04-27 01:52 | -16.51289 | -68.20482 | 13157 ft | 36 kts | 271° |
| 2026-04-27 01:52 | -16.51282 | -68.20741 | 13145 ft | 36 kts | 272° |
| 2026-04-27 01:53 | -16.51274 | -68.20983 | 13136 ft | 17 kts | 278° |
| 2026-04-27 01:53 | -16.51254 | -68.21078 | 13132 ft | 9 kts | 239° |
| 2026-04-27 01:53 | -16.51279 | -68.21085 | 13131 ft | 3 kts | 152° |
| 2026-04-27 01:53 | -16.51284 | -68.21062 | 13132 ft | 4 kts | 73° |
| 2026-04-27 01:54 | -16.51275 | -68.20994 | 13136 ft | 27 kts | 89° |
| 2026-04-27 01:54 | -16.51286 | -68.20588 | 13152 ft | 84 kts | 91° |
| 2026-04-27 01:54 | -16.51307 | -68.19782 | 13193 ft | 133 kts | 92° |
| 2026-04-27 01:54 | -16.51344 | -68.18668 | 13244 ft | 173 kts | 92° |
| 2026-04-27 01:55 | -16.51384 | -68.17317 | 13472 ft | 197 kts | 91° |
| 2026-04-27 01:55 | -16.51429 | -68.15860 | 14045 ft | 207 kts | 92° |
| 2026-04-27 01:55 | -16.51660 | -68.14320 | 14324 ft | 227 kts | 107° |
| 2026-04-27 01:55 | -16.52278 | -68.12781 | 14856 ft | 226 kts | 124° |
| 2026-04-27 01:56 | -16.55045 | -68.11150 | 15545 ft | 251 kts | 162° |
| 2026-04-27 01:56 | -16.56749 | -68.10596 | 16005 ft | 260 kts | 163° |
| 2026-04-27 01:56 | -16.58475 | -68.10051 | 16775 ft | 257 kts | 163° |
| 2026-04-27 01:57 | -16.60177 | -68.09517 | 17426 ft | 260 kts | 163° |
| 2026-04-27 01:57 | -16.61920 | -68.08969 | 18104 ft | 263 kts | 163° |
| 2026-04-27 01:57 | -16.63674 | -68.08416 | 18779 ft | 264 kts | 163° |
| 2026-04-27 01:57 | -16.65327 | -68.07538 | 19326 ft | 269 kts | 139° |
| 2026-04-27 01:58 | -16.66644 | -68.06150 | 19897 ft | 272 kts | 133° |
| 2026-04-27 01:58 | -16.67937 | -68.04681 | 20448 ft | 276 kts | 133° |
| 2026-04-27 01:58 | -16.69251 | -68.03189 | 21004 ft | 279 kts | 133° |
| 2026-04-27 01:58 | -16.70578 | -68.01697 | 21580 ft | 282 kts | 133° |
| 2026-04-27 01:59 | -16.71907 | -68.00209 | 22138 ft | 285 kts | 133° |
| 2026-04-27 01:59 | -16.73271 | -67.98684 | 22703 ft | 288 kts | 133° |
| 2026-04-27 01:59 | -16.74527 | -67.97039 | 23229 ft | 292 kts | 116° |
| 2026-04-27 01:59 | -16.75213 | -67.94991 | 23460 ft | 307 kts | 105° |
| 2026-04-27 02:00 | -16.75771 | -67.92769 | 23621 ft | 325 kts | 104° |
| 2026-04-27 02:00 | -16.76333 | -67.90419 | 23798 ft | 342 kts | 104° |
| 2026-04-27 02:00 | -16.76919 | -67.87966 | 24039 ft | 355 kts | 104° |
| 2026-04-27 02:00 | -16.77530 | -67.85433 | 24398 ft | 363 kts | 104° |
| 2026-04-27 02:01 | -16.78157 | -67.82863 | 24837 ft | 368 kts | 104° |
| 2026-04-27 02:01 | -16.78793 | -67.80274 | 25172 ft | 368 kts | 104° |
| 2026-04-27 02:01 | -16.79424 | -67.77721 | 25181 ft | 367 kts | 104° |
| 2026-04-27 02:01 | -16.80066 | -67.75133 | 25198 ft | 369 kts | 104° |
| 2026-04-27 02:02 | -16.80722 | -67.72490 | 25211 ft | 384 kts | 104° |
| 2026-04-27 02:02 | -16.81408 | -67.69727 | 25220 ft | 398 kts | 104° |
| 2026-04-27 02:02 | -16.82116 | -67.66874 | 25227 ft | 411 kts | 104° |
| 2026-04-27 02:02 | -16.82845 | -67.63934 | 25226 ft | 423 kts | 104° |
| 2026-04-27 02:03 | -16.83594 | -67.60914 | 25231 ft | 433 kts | 104° |
| 2026-04-27 02:03 | -16.84357 | -67.57834 | 25227 ft | 442 kts | 104° |
| 2026-04-27 02:03 | -16.85126 | -67.54727 | 25224 ft | 450 kts | 104° |
| 2026-04-27 02:03 | -16.85815 | -67.51937 | 25223 ft | 456 kts | 104° |
| 2026-04-27 02:04 | -16.86615 | -67.48703 | 25226 ft | 462 kts | 104° |
| 2026-04-27 02:04 | -16.87422 | -67.45435 | 25227 ft | 466 kts | 104° |
| 2026-04-27 02:04 | -16.88223 | -67.42188 | 25222 ft | 467 kts | 104° |
| 2026-04-27 02:04 | -16.89039 | -67.38883 | 25236 ft | 471 kts | 104° |
| 2026-04-27 02:05 | -16.89929 | -67.35560 | 25233 ft | 475 kts | 109° |
| 2026-04-27 02:05 | -16.91204 | -67.32366 | 25252 ft | 478 kts | 114° |
| 2026-04-27 02:05 | -16.92637 | -67.29221 | 25249 ft | 481 kts | 116° |
| 2026-04-27 02:05 | -16.94123 | -67.26068 | 25252 ft | 483 kts | 116° |
| 2026-04-27 02:06 | -16.95604 | -67.22908 | 25256 ft | 485 kts | 116° |
| 2026-04-27 02:06 | -16.97047 | -67.19771 | 25254 ft | 487 kts | 115° |
| 2026-04-27 02:06 | -16.98499 | -67.16557 | 25259 ft | 489 kts | 115° |
| 2026-04-27 02:06 | -16.99934 | -67.13337 | 25260 ft | 490 kts | 115° |
| 2026-04-27 02:07 | -17.01371 | -67.10090 | 25259 ft | 491 kts | 115° |
| 2026-04-27 02:07 | -17.02803 | -67.06845 | 25266 ft | 492 kts | 115° |
| 2026-04-27 02:07 | -17.04239 | -67.03590 | 25269 ft | 493 kts | 115° |
| 2026-04-27 02:07 | -17.05679 | -67.00329 | 25271 ft | 493 kts | 115° |
| 2026-04-27 02:08 | -17.07122 | -66.97062 | 25267 ft | 493 kts | 115° |
| 2026-04-27 02:08 | -17.08540 | -66.93851 | 25268 ft | 493 kts | 115° |
| 2026-04-27 02:08 | -17.09978 | -66.90594 | 25270 ft | 493 kts | 115° |
| 2026-04-27 02:08 | -17.11419 | -66.87330 | 25275 ft | 493 kts | 115° |
| 2026-04-27 02:09 | -17.12857 | -66.84070 | 25277 ft | 493 kts | 114° |
| 2026-04-27 02:09 | -17.14295 | -66.80809 | 25284 ft | 492 kts | 114° |
| 2026-04-27 02:09 | -17.15748 | -66.77549 | 25287 ft | 492 kts | 116° |
| 2026-04-27 02:09 | -17.17469 | -66.74557 | 25278 ft | 492 kts | 126° |
| 2026-04-27 02:10 | -17.19611 | -66.71826 | 25270 ft | 474 kts | 133° |
| 2026-04-27 02:10 | -17.21995 | -66.69563 | 25279 ft | 451 kts | 142° |
| 2026-04-27 02:10 | -17.24448 | -66.67626 | 25280 ft | 431 kts | 143° |
| 2026-04-27 02:10 | -17.26788 | -66.65766 | 25275 ft | 413 kts | 142° |
| 2026-04-27 02:11 | -17.29036 | -66.63960 | 25107 ft | 402 kts | 142° |
| 2026-04-27 02:11 | -17.31226 | -66.62188 | 24832 ft | 394 kts | 142° |
| 2026-04-27 02:11 | -17.33352 | -66.60458 | 24465 ft | 390 kts | 142° |
| 2026-04-27 02:11 | -17.35496 | -66.58710 | 24096 ft | 387 kts | 142° |
| 2026-04-27 02:12 | -17.37380 | -66.57172 | 23709 ft | 385 kts | 142° |
| 2026-04-27 02:12 | -17.39485 | -66.55453 | 23265 ft | 382 kts | 142° |
| 2026-04-27 02:12 | -17.41574 | -66.53746 | 22856 ft | 378 kts | 142° |
| 2026-04-27 02:12 | -17.43640 | -66.52058 | 22455 ft | 374 kts | 142° |
| 2026-04-27 02:13 | -17.45656 | -66.50411 | 22071 ft | 371 kts | 143° |
| 2026-04-27 02:13 | -17.47682 | -66.48755 | 21689 ft | 368 kts | 143° |
| 2026-04-27 02:13 | -17.49693 | -66.47110 | 21305 ft | 365 kts | 143° |
| 2026-04-27 02:13 | -17.51693 | -66.45476 | 20922 ft | 362 kts | 143° |
| 2026-04-27 02:14 | -17.53669 | -66.43860 | 20548 ft | 359 kts | 143° |
| 2026-04-27 02:14 | -17.55632 | -66.42254 | 20173 ft | 356 kts | 143° |
| 2026-04-27 02:14 | -17.57589 | -66.40701 | 19859 ft | 351 kts | 145° |
| 2026-04-27 02:14 | -17.59531 | -66.39146 | 19403 ft | 352 kts | 142° |
| 2026-04-27 02:15 | -17.61345 | -66.37419 | 18986 ft | 353 kts | 136° |
| 2026-04-27 02:15 | -17.62988 | -66.35507 | 18582 ft | 353 kts | 130° |
| 2026-04-27 02:15 | -17.64444 | -66.33438 | 18251 ft | 349 kts | 125° |
| 2026-04-27 02:15 | -17.65661 | -66.31330 | 18194 ft | 337 kts | 120° |
| 2026-04-27 02:16 | -17.66372 | -66.29862 | 18096 ft | 331 kts | 116° |
| 2026-04-27 02:16 | -17.67501 | -66.26914 | 17700 ft | 327 kts | 110° |
| 2026-04-27 02:16 | -17.68153 | -66.24628 | 17327 ft | 327 kts | 105° |
| 2026-04-27 02:16 | -17.68479 | -66.23077 | 17092 ft | 327 kts | 101° |
| 2026-04-27 02:17 | -17.68782 | -66.20725 | 16754 ft | 325 kts | 96° |
| 2026-04-27 02:17 | -17.68890 | -66.18335 | 16424 ft | 323 kts | 91° |
| 2026-04-27 02:17 | -17.68821 | -66.16005 | 16086 ft | 322 kts | 86° |
| 2026-04-27 02:17 | -17.68578 | -66.13675 | 15768 ft | 320 kts | 81° |
| 2026-04-27 02:18 | -17.68157 | -66.11390 | 15465 ft | 319 kts | 76° |
| 2026-04-27 02:18 | -17.67555 | -66.09154 | 15192 ft | 316 kts | 71° |
| 2026-04-27 02:18 | -17.66804 | -66.07022 | 15100 ft | 306 kts | 67° |
| 2026-04-27 02:18 | -17.65934 | -66.05044 | 14945 ft | 299 kts | 62° |
| 2026-04-27 02:19 | -17.64913 | -66.03179 | 14856 ft | 289 kts | 57° |
| 2026-04-27 02:19 | -17.63793 | -66.01463 | 14755 ft | 280 kts | 52° |
| 2026-04-27 02:19 | -17.62598 | -65.99882 | 14683 ft | 271 kts | 49° |
| 2026-04-27 02:19 | -17.61218 | -65.98601 | 14546 ft | 262 kts | 24° |
| 2026-04-27 02:20 | -17.59479 | -65.98260 | 14370 ft | 254 kts | 349° |
| 2026-04-27 02:20 | -17.57938 | -65.99015 | 14135 ft | 250 kts | 316° |
| 2026-04-27 02:20 | -17.56795 | -66.00389 | 13853 ft | 250 kts | 309° |
| 2026-04-27 02:20 | -17.55690 | -66.01792 | 13601 ft | 247 kts | 310° |
| 2026-04-27 02:21 | -17.54630 | -66.03120 | 13534 ft | 226 kts | 310° |
| 2026-04-27 02:21 | -17.53631 | -66.04357 | 13214 ft | 218 kts | 311° |
| 2026-04-27 02:21 | -17.52696 | -66.05498 | 13086 ft | 200 kts | 311° |
| 2026-04-27 02:21 | -17.51768 | -66.06603 | 12504 ft | 206 kts | 311° |
| 2026-04-27 02:22 | -17.50790 | -66.07758 | 11831 ft | 216 kts | 313° |
| 2026-04-27 02:22 | -17.49758 | -66.08900 | 11366 ft | 216 kts | 315° |
| 2026-04-27 02:22 | -17.48656 | -66.10026 | 10731 ft | 222 kts | 314° |
| 2026-04-27 02:22 | -17.47602 | -66.11216 | 10097 ft | 224 kts | 311° |
| 2026-04-27 02:23 | -17.46634 | -66.12454 | 9567 ft | 219 kts | 311° |
| 2026-04-27 02:23 | -17.45632 | -66.13644 | 9147 ft | 210 kts | 313° |
| 2026-04-27 02:23 | -17.44683 | -66.14738 | 8786 ft | 200 kts | 312° |
| 2026-04-27 02:23 | -17.43788 | -66.15769 | 8541 ft | 181 kts | 311° |
| 2026-04-27 02:24 | -17.42990 | -66.16700 | 8366 ft | 162 kts | 311° |
| 2026-04-27 02:24 | -17.42345 | -66.17448 | 8361 ft | 107 kts | 313° |
| 2026-04-27 02:24 | -17.41987 | -66.17855 | 8361 ft | 44 kts | 312° |
| 2026-04-27 02:24 | -17.41878 | -66.17977 | 8360 ft | 17 kts | 324° |
| 2026-04-27 02:25 | -17.41765 | -66.17970 | 8360 ft | 17 kts | 21° |
| 2026-04-27 02:25 | -17.41659 | -66.17927 | 8360 ft | 14 kts | 20° |
| 2026-04-27 02:25 | -17.41565 | -66.17915 | 8361 ft | 11 kts | 24° |
| 2026-04-27 02:25 | -17.41535 | -66.17892 | 8361 ft | 0 kts | 42° |